createdAt,value
2018-07-31T00:00:09.593Z,25.83
2018-07-31T00:00:50.161Z,25.83
2018-07-31T00:01:30.726Z,25.83
2018-07-31T00:02:11.308Z,25.78
2018-07-31T00:02:51.927Z,25.84
2018-07-31T00:03:32.666Z,25.68
2018-07-31T00:04:13.122Z,25.75
2018-07-31T00:04:53.707Z,25.77
2018-07-31T00:05:34.283Z,25.77
2018-07-31T00:06:14.854Z,25.78
2018-07-31T00:06:55.441Z,25.7
2018-07-31T00:07:36.021Z,25.69
2018-07-31T00:08:16.675Z,25.68
2018-07-31T00:08:57.244Z,25.7
2018-07-31T00:09:37.818Z,25.73
2018-07-31T00:10:18.376Z,25.75
2018-07-31T00:10:58.954Z,25.68
2018-07-31T00:11:39.496Z,25.72
2018-07-31T00:12:20.064Z,25.7
2018-07-31T00:13:00.676Z,25.66
2018-07-31T00:13:41.228Z,25.72
2018-07-31T00:14:21.800Z,25.72
2018-07-31T00:15:02.422Z,25.73
2018-07-31T00:15:43.112Z,25.69
2018-07-31T00:16:23.674Z,25.68
2018-07-31T00:17:04.227Z,25.68
2018-07-31T00:17:44.793Z,25.68
2018-07-31T00:18:25.356Z,25.66
2018-07-31T00:19:06.069Z,25.68
2018-07-31T00:19:46.639Z,25.66
2018-07-31T00:20:27.221Z,25.72
2018-07-31T00:21:07.793Z,25.65
2018-07-31T00:21:48.351Z,25.7
2018-07-31T00:22:28.920Z,25.66
2018-07-31T00:23:09.471Z,25.7
2018-07-31T00:23:50.111Z,25.68
2018-07-31T00:24:30.761Z,25.66
2018-07-31T00:25:11.339Z,25.65
2018-07-31T00:25:51.915Z,25.69
2018-07-31T00:26:32.480Z,25.68
2018-07-31T00:27:13.057Z,25.7
2018-07-31T00:27:53.624Z,25.68
2018-07-31T00:28:34.192Z,25.72
2018-07-31T00:29:14.754Z,25.65
2018-07-31T00:29:55.376Z,25.66
2018-07-31T00:30:35.944Z,25.68
2018-07-31T00:31:16.505Z,25.72
2018-07-31T00:31:57.077Z,25.66
2018-07-31T00:32:37.654Z,25.63
2018-07-31T00:33:18.234Z,25.66
2018-07-31T00:33:58.799Z,25.7
2018-07-31T00:34:39.360Z,25.6
2018-07-31T00:35:19.975Z,25.63
2018-07-31T00:36:00.677Z,25.63
2018-07-31T00:36:41.251Z,25.63
2018-07-31T00:37:21.826Z,25.63
2018-07-31T00:38:02.425Z,25.65
2018-07-31T00:38:42.999Z,25.65
2018-07-31T00:39:23.551Z,25.54
2018-07-31T00:40:04.143Z,25.66
2018-07-31T00:40:44.824Z,25.58
2018-07-31T00:41:25.372Z,25.53
2018-07-31T00:42:05.988Z,25.53
2018-07-31T00:42:46.558Z,25.53
2018-07-31T00:43:27.111Z,25.54
2018-07-31T00:44:07.680Z,25.55
2018-07-31T00:44:48.265Z,25.62
2018-07-31T00:45:28.839Z,25.54
2018-07-31T00:46:09.397Z,25.43
2018-07-31T00:46:49.999Z,25.58
2018-07-31T00:47:30.592Z,25.46
2018-07-31T00:48:11.164Z,25.48
2018-07-31T00:48:51.738Z,25.47
2018-07-31T00:49:32.288Z,25.44
2018-07-31T00:50:12.886Z,25.47
2018-07-31T00:50:53.440Z,25.46
2018-07-31T00:51:34.048Z,25.43
2018-07-31T00:52:14.635Z,25.46
2018-07-31T00:52:55.214Z,25.4
2018-07-31T00:53:35.786Z,25.44
2018-07-31T00:54:16.349Z,25.4
2018-07-31T00:54:56.914Z,25.4
2018-07-31T00:55:37.509Z,25.41
2018-07-31T00:56:18.071Z,25.41
2018-07-31T00:56:58.641Z,25.38
2018-07-31T00:57:39.297Z,25.46
2018-07-31T00:58:19.877Z,25.4
2018-07-31T00:59:00.440Z,25.33
2018-07-31T00:59:41.010Z,25.38
2018-07-31T01:00:21.574Z,25.38
2018-07-31T01:01:02.155Z,25.4
2018-07-31T01:01:42.719Z,25.41
2018-07-31T01:02:23.285Z,25.4
2018-07-31T01:03:03.861Z,25.43
2018-07-31T01:03:44.434Z,25.41
2018-07-31T01:04:25.013Z,25.43
2018-07-31T01:05:05.672Z,25.38
2018-07-31T01:05:46.140Z,25.36
2018-07-31T01:06:26.703Z,25.44
2018-07-31T01:07:07.266Z,25.36
2018-07-31T01:07:47.836Z,25.5
2018-07-31T01:08:28.428Z,25.4
2018-07-31T01:09:09.024Z,25.38
2018-07-31T01:09:49.598Z,25.44
2018-07-31T01:10:30.170Z,25.35
2018-07-31T01:11:10.767Z,25.36
2018-07-31T01:11:51.396Z,25.4
2018-07-31T01:12:31.967Z,25.43
2018-07-31T01:13:12.545Z,25.41
2018-07-31T01:13:53.103Z,25.41
2018-07-31T01:14:33.729Z,25.38
2018-07-31T01:15:14.316Z,25.43
2018-07-31T01:15:54.926Z,25.41
2018-07-31T01:16:35.491Z,25.38
2018-07-31T01:17:16.073Z,25.38
2018-07-31T01:17:56.694Z,25.41
2018-07-31T01:18:37.286Z,25.44
2018-07-31T01:19:17.854Z,25.41
2018-07-31T01:19:58.435Z,25.43
2018-07-31T01:20:39.001Z,25.41
2018-07-31T01:21:19.558Z,25.41
2018-07-31T01:22:00.117Z,25.35
2018-07-31T01:22:40.759Z,25.32
2018-07-31T01:23:21.335Z,25.32
2018-07-31T01:24:01.952Z,25.26
2018-07-31T01:24:42.551Z,25.29
2018-07-31T01:25:23.194Z,25.28
2018-07-31T01:26:03.773Z,25.26
2018-07-31T01:26:44.413Z,25.28
2018-07-31T01:27:25.016Z,25.29
2018-07-31T01:28:05.593Z,25.29
2018-07-31T01:28:46.190Z,25.26
2018-07-31T01:29:26.750Z,25.21
2018-07-31T01:30:07.349Z,25.26
2018-07-31T01:30:47.920Z,25.26
2018-07-31T01:31:28.518Z,25.18
2018-07-31T01:32:09.089Z,25.26
2018-07-31T01:32:49.652Z,25.22
2018-07-31T01:33:30.263Z,25.21
2018-07-31T01:34:10.829Z,25.13
2018-07-31T01:34:51.371Z,25.23
2018-07-31T01:35:32.017Z,25.16
2018-07-31T01:36:12.565Z,25.22
2018-07-31T01:36:53.128Z,25.14
2018-07-31T01:37:33.702Z,25.17
2018-07-31T01:38:14.328Z,25.18
2018-07-31T01:38:54.861Z,25.14
2018-07-31T01:39:35.428Z,25.17
2018-07-31T01:40:15.998Z,25.18
2018-07-31T01:40:56.548Z,25.13
2018-07-31T01:41:37.121Z,25.13
2018-07-31T01:42:17.704Z,25.11
2018-07-31T01:42:58.270Z,25.11
2018-07-31T01:43:38.832Z,25.1
2018-07-31T01:44:19.388Z,25.08
2018-07-31T01:44:59.969Z,25.1
2018-07-31T01:45:40.547Z,25.13
2018-07-31T01:46:21.106Z,25.07
2018-07-31T01:47:01.684Z,25.07
2018-07-31T01:47:42.235Z,25.04
2018-07-31T01:48:22.808Z,25.07
2018-07-31T01:49:03.381Z,25.06
2018-07-31T01:49:43.957Z,25.01
2018-07-31T01:50:24.528Z,25.1
2018-07-31T01:51:05.099Z,25.06
2018-07-31T01:51:45.680Z,25.07
2018-07-31T01:52:26.261Z,25.06
2018-07-31T01:53:06.824Z,24.99
2018-07-31T01:53:47.394Z,24.98
2018-07-31T01:54:27.986Z,24.99
2018-07-31T01:55:08.657Z,25.07
2018-07-31T01:55:49.152Z,24.95
2018-07-31T01:56:29.721Z,25.06
2018-07-31T01:57:10.292Z,25.07
2018-07-31T01:57:50.868Z,25.03
2018-07-31T01:58:31.430Z,24.99
2018-07-31T01:59:12.004Z,24.93
2018-07-31T01:59:52.611Z,24.98
2018-07-31T02:00:33.179Z,24.95
2018-07-31T02:01:13.754Z,24.99
2018-07-31T02:01:54.332Z,25.03
2018-07-31T02:02:34.905Z,24.93
2018-07-31T02:03:15.546Z,24.99
2018-07-31T02:03:56.203Z,25.04
2018-07-31T02:04:36.776Z,25.06
2018-07-31T02:05:17.364Z,24.92
2018-07-31T02:05:57.923Z,24.95
2018-07-31T02:06:38.523Z,24.88
2018-07-31T02:07:19.060Z,24.89
2018-07-31T02:07:59.614Z,24.95
2018-07-31T02:08:40.193Z,24.99
2018-07-31T02:09:20.763Z,24.99
2018-07-31T02:10:01.338Z,24.92
2018-07-31T02:10:41.905Z,24.88
2018-07-31T02:11:22.455Z,24.92
2018-07-31T02:12:03.186Z,24.95
2018-07-31T02:12:43.765Z,24.95
2018-07-31T02:13:24.337Z,24.89
2018-07-31T02:14:04.959Z,24.92
2018-07-31T02:14:45.509Z,24.89
2018-07-31T02:15:26.103Z,25.01
2018-07-31T02:16:06.684Z,24.8
2018-07-31T02:16:47.247Z,24.86
2018-07-31T02:17:27.820Z,24.84
2018-07-31T02:18:08.388Z,24.91
2018-07-31T02:18:48.988Z,24.95
2018-07-31T02:19:29.571Z,24.93
2018-07-31T02:20:10.160Z,24.92
2018-07-31T02:20:50.739Z,24.99
2018-07-31T02:21:31.303Z,24.93
2018-07-31T02:22:11.867Z,24.93
2018-07-31T02:22:52.454Z,24.81
2018-07-31T02:23:32.987Z,24.95
2018-07-31T02:24:13.559Z,24.92
2018-07-31T02:24:54.136Z,24.95
2018-07-31T02:25:34.735Z,24.89
2018-07-31T02:26:15.310Z,24.93
2018-07-31T02:26:55.901Z,24.96
2018-07-31T02:27:36.467Z,24.92
2018-07-31T02:28:17.197Z,24.92
2018-07-31T02:28:57.592Z,24.98
2018-07-31T02:29:38.167Z,24.98
2018-07-31T02:30:18.770Z,24.95
2018-07-31T02:30:59.346Z,24.99
2018-07-31T02:31:39.994Z,24.84
2018-07-31T02:32:20.549Z,24.86
2018-07-31T02:33:01.107Z,24.95
2018-07-31T02:33:41.665Z,24.89
2018-07-31T02:34:22.239Z,24.92
2018-07-31T02:35:02.840Z,24.85
2018-07-31T02:35:43.406Z,24.84
2018-07-31T02:36:23.969Z,24.93
2018-07-31T02:37:04.596Z,24.78
2018-07-31T02:37:45.142Z,24.8
2018-07-31T02:38:25.711Z,24.8
2018-07-31T02:39:06.295Z,24.81
2018-07-31T02:39:46.851Z,24.81
2018-07-31T02:40:27.425Z,24.92
2018-07-31T02:41:08.006Z,24.84
2018-07-31T02:41:48.652Z,24.92
2018-07-31T02:42:29.217Z,24.78
2018-07-31T02:43:09.873Z,24.86
2018-07-31T02:43:50.445Z,24.88
2018-07-31T02:44:31.011Z,24.85
2018-07-31T02:45:11.602Z,24.99
2018-07-31T02:45:52.170Z,25.01
2018-07-31T02:46:32.748Z,24.93
2018-07-31T02:47:13.360Z,24.86
2018-07-31T02:47:53.934Z,24.89
2018-07-31T02:48:34.504Z,24.95
2018-07-31T02:49:15.068Z,24.96
2018-07-31T02:49:55.649Z,24.93
2018-07-31T02:50:36.213Z,25.01
2018-07-31T02:51:16.784Z,24.89
2018-07-31T02:51:57.344Z,24.96
2018-07-31T02:52:37.915Z,24.91
2018-07-31T02:53:18.489Z,24.93
2018-07-31T02:53:59.058Z,24.89
2018-07-31T02:54:39.636Z,24.92
2018-07-31T02:55:20.191Z,24.89
2018-07-31T02:56:00.740Z,24.85
2018-07-31T02:56:41.299Z,24.95
2018-07-31T02:57:21.853Z,24.84
2018-07-31T02:58:02.427Z,24.84
2018-07-31T02:58:42.997Z,24.88
2018-07-31T02:59:23.570Z,24.81
2018-07-31T03:00:04.145Z,24.86
2018-07-31T03:00:44.727Z,24.8
2018-07-31T03:01:25.299Z,24.8
2018-07-31T03:02:05.861Z,24.77
2018-07-31T03:02:46.433Z,24.76
2018-07-31T03:03:26.996Z,24.73
2018-07-31T03:04:07.570Z,24.68
2018-07-31T03:04:48.127Z,24.66
2018-07-31T03:05:28.709Z,24.55
2018-07-31T03:06:09.289Z,24.6
2018-07-31T03:06:49.870Z,24.69
2018-07-31T03:07:30.410Z,24.69
2018-07-31T03:08:11.025Z,24.68
2018-07-31T03:08:51.542Z,24.65
2018-07-31T03:09:32.112Z,24.65
2018-07-31T03:10:12.690Z,24.61
2018-07-31T03:10:53.255Z,24.61
2018-07-31T03:11:33.820Z,24.66
2018-07-31T03:12:14.390Z,24.61
2018-07-31T03:12:54.995Z,24.58
2018-07-31T03:13:35.559Z,24.6
2018-07-31T03:14:16.192Z,24.57
2018-07-31T03:14:56.755Z,24.61
2018-07-31T03:15:37.331Z,24.55
2018-07-31T03:16:17.899Z,24.54
2018-07-31T03:16:58.473Z,24.57
2018-07-31T03:17:39.042Z,24.57
2018-07-31T03:18:19.619Z,24.53
2018-07-31T03:19:00.217Z,24.53
2018-07-31T03:19:40.828Z,24.53
2018-07-31T03:20:21.373Z,24.53
2018-07-31T03:21:01.927Z,24.53
2018-07-31T03:21:42.480Z,24.43
2018-07-31T03:22:23.059Z,24.47
2018-07-31T03:23:03.628Z,24.55
2018-07-31T03:23:44.199Z,24.45
2018-07-31T03:24:24.772Z,24.45
2018-07-31T03:25:05.345Z,24.43
2018-07-31T03:25:45.914Z,24.43
2018-07-31T03:26:26.484Z,24.48
2018-07-31T03:27:07.055Z,24.51
2018-07-31T03:27:47.630Z,24.45
2018-07-31T03:28:28.202Z,24.42
2018-07-31T03:29:08.773Z,24.39
2018-07-31T03:29:49.334Z,24.42
2018-07-31T03:30:29.903Z,24.42
2018-07-31T03:31:10.467Z,24.47
2018-07-31T03:31:51.057Z,24.45
2018-07-31T03:32:31.603Z,24.47
2018-07-31T03:33:12.167Z,24.43
2018-07-31T03:33:52.734Z,24.39
2018-07-31T03:34:33.300Z,24.47
2018-07-31T03:35:13.902Z,24.43
2018-07-31T03:35:54.451Z,24.42
2018-07-31T03:36:35.024Z,24.5
2018-07-31T03:37:15.612Z,24.42
2018-07-31T03:37:56.220Z,24.5
2018-07-31T03:38:36.762Z,24.47
2018-07-31T03:39:17.355Z,24.47
2018-07-31T03:39:57.930Z,24.4
2018-07-31T03:40:38.500Z,24.43
2018-07-31T03:41:19.066Z,24.39
2018-07-31T03:41:59.656Z,24.42
2018-07-31T03:42:40.212Z,24.43
2018-07-31T03:43:20.787Z,24.5
2018-07-31T03:44:01.356Z,24.42
2018-07-31T03:44:41.934Z,24.51
2018-07-31T03:45:22.527Z,24.43
2018-07-31T03:46:03.104Z,24.4
2018-07-31T03:46:43.672Z,24.47
2018-07-31T03:47:24.251Z,24.42
2018-07-31T03:48:04.822Z,24.42
2018-07-31T03:48:45.394Z,24.42
2018-07-31T03:49:25.969Z,24.4
2018-07-31T03:50:06.640Z,24.3
2018-07-31T03:50:47.103Z,24.4
2018-07-31T03:51:27.686Z,24.4
2018-07-31T03:52:08.268Z,24.4
2018-07-31T03:52:48.849Z,24.32
2018-07-31T03:53:29.413Z,24.32
2018-07-31T03:54:09.987Z,24.39
2018-07-31T03:54:50.557Z,24.32
2018-07-31T03:55:31.125Z,24.36
2018-07-31T03:56:11.702Z,24.33
2018-07-31T03:56:52.261Z,24.32
2018-07-31T03:57:32.838Z,24.3
2018-07-31T03:58:13.412Z,24.32
2018-07-31T03:58:54.001Z,24.33
2018-07-31T03:59:34.572Z,24.33
2018-07-31T04:00:15.150Z,24.32
2018-07-31T04:00:55.719Z,24.28
2018-07-31T04:01:36.285Z,24.3
2018-07-31T04:02:16.857Z,24.29
2018-07-31T04:02:57.429Z,24.29
2018-07-31T04:03:38.029Z,24.32
2018-07-31T04:04:18.599Z,24.32
2018-07-31T04:04:59.164Z,24.35
2018-07-31T04:05:39.734Z,24.33
2018-07-31T04:06:20.290Z,24.3
2018-07-31T04:07:00.844Z,24.26
2018-07-31T04:07:41.477Z,24.33
2018-07-31T04:08:21.995Z,24.29
2018-07-31T04:09:02.552Z,24.26
2018-07-31T04:09:43.127Z,24.28
2018-07-31T04:10:23.731Z,24.29
2018-07-31T04:11:04.300Z,24.3
2018-07-31T04:11:44.871Z,24.3
2018-07-31T04:12:25.463Z,24.24
2018-07-31T04:13:06.042Z,24.16
2018-07-31T04:13:46.607Z,24.18
2018-07-31T04:14:27.192Z,24.23
2018-07-31T04:15:07.762Z,24.18
2018-07-31T04:15:48.350Z,24.2
2018-07-31T04:16:28.949Z,24.21
2018-07-31T04:17:09.629Z,24.23
2018-07-31T04:17:50.091Z,24.17
2018-07-31T04:18:30.642Z,24.2
2018-07-31T04:19:11.224Z,24.13
2018-07-31T04:19:51.803Z,24.13
2018-07-31T04:20:32.373Z,24.24
2018-07-31T04:21:12.956Z,24.18
2018-07-31T04:21:53.522Z,24.17
2018-07-31T04:22:34.119Z,24.18
2018-07-31T04:23:14.700Z,24.17
2018-07-31T04:23:55.268Z,24.18
2018-07-31T04:24:35.860Z,24.21
2018-07-31T04:25:16.425Z,24.14
2018-07-31T04:25:56.994Z,24.17
2018-07-31T04:26:37.572Z,24.1
2018-07-31T04:27:18.169Z,24.28
2018-07-31T04:27:58.749Z,24.28
2018-07-31T04:28:39.336Z,24.21
2018-07-31T04:29:19.910Z,24.2
2018-07-31T04:30:00.536Z,24.2
2018-07-31T04:30:41.095Z,24.16
2018-07-31T04:31:21.661Z,24.17
2018-07-31T04:32:02.239Z,24.26
2018-07-31T04:32:42.812Z,24.17
2018-07-31T04:33:23.381Z,24.14
2018-07-31T04:34:03.949Z,24.13
2018-07-31T04:34:44.507Z,24.24
2018-07-31T04:35:25.074Z,24.18
2018-07-31T04:36:05.622Z,24.2
2018-07-31T04:36:46.188Z,24.17
2018-07-31T04:37:26.766Z,24.14
2018-07-31T04:38:07.327Z,24.2
2018-07-31T04:38:47.961Z,24.17
2018-07-31T04:39:28.519Z,24.18
2018-07-31T04:40:09.129Z,24.24
2018-07-31T04:40:49.643Z,24.1
2018-07-31T04:41:30.205Z,24.18
2018-07-31T04:42:10.778Z,24.16
2018-07-31T04:42:51.340Z,24.18
2018-07-31T04:43:31.904Z,24.26
2018-07-31T04:44:12.607Z,24.13
2018-07-31T04:44:53.187Z,24.28
2018-07-31T04:45:33.756Z,24.21
2018-07-31T04:46:14.316Z,24.21
2018-07-31T04:46:54.866Z,24.14
2018-07-31T04:47:35.433Z,24.26
2018-07-31T04:48:16.008Z,24.17
2018-07-31T04:48:56.591Z,24.21
2018-07-31T04:49:37.158Z,24.29
2018-07-31T04:50:17.752Z,24.23
2018-07-31T04:50:58.351Z,24.26
2018-07-31T04:51:38.907Z,24.24
2018-07-31T04:52:19.479Z,24.3
2018-07-31T04:53:00.048Z,24.23
2018-07-31T04:53:40.682Z,24.24
2018-07-31T04:54:21.253Z,24.2
2018-07-31T04:55:01.828Z,24.28
2018-07-31T04:55:42.396Z,24.28
2018-07-31T04:56:22.972Z,24.28
2018-07-31T04:57:03.552Z,24.24
2018-07-31T04:57:44.135Z,24.26
2018-07-31T04:58:24.689Z,24.29
2018-07-31T04:59:05.243Z,24.24
2018-07-31T04:59:45.806Z,24.3
2018-07-31T05:00:26.361Z,24.32
2018-07-31T05:01:06.926Z,24.35
2018-07-31T05:01:47.511Z,24.3
2018-07-31T05:02:28.067Z,24.32
2018-07-31T05:03:08.645Z,24.39
2018-07-31T05:03:49.245Z,24.39
2018-07-31T05:04:29.856Z,24.45
2018-07-31T05:05:10.377Z,24.47
2018-07-31T05:05:50.932Z,24.39
2018-07-31T05:06:31.535Z,24.38
2018-07-31T05:07:12.093Z,24.36
2018-07-31T05:07:52.669Z,24.42
2018-07-31T05:08:33.238Z,24.35
2018-07-31T05:09:13.795Z,24.47
2018-07-31T05:09:54.380Z,24.48
2018-07-31T05:10:34.944Z,24.48
2018-07-31T05:11:15.525Z,24.47
2018-07-31T05:11:56.100Z,24.51
2018-07-31T05:12:36.676Z,24.45
2018-07-31T05:13:17.263Z,24.43
2018-07-31T05:13:57.822Z,24.53
2018-07-31T05:14:38.408Z,24.48
2018-07-31T05:15:18.983Z,24.47
2018-07-31T05:15:59.541Z,24.55
2018-07-31T05:16:40.144Z,24.57
2018-07-31T05:17:20.672Z,24.55
2018-07-31T05:18:01.232Z,24.51
2018-07-31T05:18:41.798Z,24.54
2018-07-31T05:19:22.368Z,24.58
2018-07-31T05:20:02.945Z,24.61
2018-07-31T05:20:43.572Z,24.57
2018-07-31T05:21:24.135Z,24.61
2018-07-31T05:22:04.702Z,24.63
2018-07-31T05:22:45.278Z,24.61
2018-07-31T05:23:25.853Z,24.6
2018-07-31T05:24:06.416Z,24.6
2018-07-31T05:24:46.979Z,24.65
2018-07-31T05:25:27.548Z,24.65
2018-07-31T05:26:08.134Z,24.66
2018-07-31T05:26:48.712Z,24.65
2018-07-31T05:27:29.279Z,24.61
2018-07-31T05:28:09.839Z,24.68
2018-07-31T05:28:50.399Z,24.7
2018-07-31T05:29:30.955Z,24.78
2018-07-31T05:30:11.525Z,24.76
2018-07-31T05:30:52.102Z,24.68
2018-07-31T05:31:32.670Z,24.73
2018-07-31T05:32:13.231Z,24.74
2018-07-31T05:32:53.980Z,24.76
2018-07-31T05:33:34.385Z,24.77
2018-07-31T05:34:14.964Z,24.86
2018-07-31T05:34:55.521Z,24.78
2018-07-31T05:35:36.084Z,24.8
2018-07-31T05:36:16.651Z,24.84
2018-07-31T05:36:57.210Z,24.88
2018-07-31T05:37:37.786Z,24.81
2018-07-31T05:38:18.360Z,24.92
2018-07-31T05:38:58.925Z,24.93
2018-07-31T05:39:39.492Z,24.98
2018-07-31T05:40:20.045Z,24.96
2018-07-31T05:41:00.631Z,24.99
2018-07-31T05:41:41.204Z,25.13
2018-07-31T05:42:21.763Z,25.14
2018-07-31T05:43:02.336Z,25.07
2018-07-31T05:43:42.908Z,25.16
2018-07-31T05:44:23.482Z,25.25
2018-07-31T05:45:04.060Z,25.26
2018-07-31T05:45:44.638Z,25.32
2018-07-31T05:46:25.193Z,25.35
2018-07-31T05:47:05.763Z,25.41
2018-07-31T05:47:46.335Z,25.44
2018-07-31T05:48:26.910Z,25.51
2018-07-31T05:49:07.468Z,25.63
2018-07-31T05:49:48.051Z,25.72
2018-07-31T05:50:28.632Z,25.84
2018-07-31T05:51:09.188Z,25.9
2018-07-31T05:51:49.774Z,25.96
2018-07-31T05:52:30.326Z,26.15
2018-07-31T05:53:10.919Z,26.07
2018-07-31T05:53:51.506Z,26.1
2018-07-31T05:54:32.059Z,26.26
2018-07-31T05:55:12.638Z,26.4
2018-07-31T05:55:53.219Z,26.43
2018-07-31T05:56:33.796Z,26.6
2018-07-31T05:57:14.363Z,26.65
2018-07-31T05:57:54.955Z,26.81
2018-07-31T05:58:35.527Z,26.83
2018-07-31T05:59:16.102Z,26.96
2018-07-31T05:59:56.673Z,27.05
2018-07-31T06:00:37.234Z,27.11
2018-07-31T06:01:17.813Z,27.15
2018-07-31T06:01:58.378Z,27.22
2018-07-31T06:02:38.957Z,27.36
2018-07-31T06:03:19.531Z,27.4
2018-07-31T06:04:00.114Z,27.4
2018-07-31T06:04:40.678Z,27.48
2018-07-31T06:05:21.259Z,27.59
2018-07-31T06:06:01.838Z,27.7
2018-07-31T06:06:42.418Z,27.73
2018-07-31T06:07:22.984Z,27.85
2018-07-31T06:08:03.566Z,27.95
2018-07-31T06:08:44.145Z,28
2018-07-31T06:09:24.773Z,28.01
2018-07-31T06:10:05.314Z,28.14
2018-07-31T06:10:45.893Z,28.15
2018-07-31T06:11:26.525Z,28.25
2018-07-31T06:12:07.134Z,28.23
2018-07-31T06:12:47.721Z,28.42
2018-07-31T06:13:28.290Z,28.3
2018-07-31T06:14:08.863Z,28.41
2018-07-31T06:14:49.448Z,28.48
2018-07-31T06:15:30.025Z,28.52
2018-07-31T06:16:10.601Z,28.59
2018-07-31T06:16:51.182Z,28.67
2018-07-31T06:17:31.763Z,28.76
2018-07-31T06:18:12.347Z,28.81
2018-07-31T06:18:52.925Z,28.93
2018-07-31T06:19:33.494Z,28.96
2018-07-31T06:20:14.115Z,28.96
2018-07-31T06:20:54.691Z,29.13
2018-07-31T06:21:35.340Z,29.1
2018-07-31T06:22:15.911Z,29.31
2018-07-31T06:22:56.490Z,29.32
2018-07-31T06:23:37.110Z,29.35
2018-07-31T06:24:17.747Z,29.42
2018-07-31T06:24:58.327Z,29.42
2018-07-31T06:25:38.916Z,29.5
2018-07-31T06:26:19.471Z,29.5
2018-07-31T06:27:00.125Z,29.57
2018-07-31T06:27:40.635Z,29.51
2018-07-31T06:28:21.218Z,29.63
2018-07-31T06:29:01.785Z,29.57
2018-07-31T06:29:42.370Z,29.71
2018-07-31T06:30:22.943Z,29.76
2018-07-31T06:31:03.515Z,29.84
2018-07-31T06:31:44.135Z,29.81
2018-07-31T06:32:24.713Z,29.93
2018-07-31T06:33:05.294Z,29.98
2018-07-31T06:33:45.882Z,29.97
2018-07-31T06:34:26.472Z,29.93
2018-07-31T06:35:07.072Z,30
2018-07-31T06:35:47.630Z,29.94
2018-07-31T06:36:28.214Z,30.08
2018-07-31T06:37:08.793Z,30.1
2018-07-31T06:37:49.393Z,30.13
2018-07-31T06:38:29.973Z,30.18
2018-07-31T06:39:10.546Z,30.15
2018-07-31T06:39:51.125Z,30.25
2018-07-31T06:40:31.764Z,30.25
2018-07-31T06:41:12.285Z,30.31
2018-07-31T06:41:52.866Z,30.35
2018-07-31T06:42:33.461Z,30.48
2018-07-31T06:43:14.034Z,30.51
2018-07-31T06:43:54.624Z,30.55
2018-07-31T06:44:35.209Z,30.62
2018-07-31T06:45:15.772Z,30.66
2018-07-31T06:45:56.343Z,30.78
2018-07-31T06:46:36.927Z,30.81
2018-07-31T06:47:17.523Z,30.75
2018-07-31T06:47:58.074Z,30.77
2018-07-31T06:48:38.679Z,30.81
2018-07-31T06:49:19.324Z,30.84
2018-07-31T06:49:59.861Z,30.78
2018-07-31T06:50:40.457Z,30.94
2018-07-31T06:51:21.040Z,30.87
2018-07-31T06:52:01.620Z,31.06
2018-07-31T06:52:42.201Z,31.09
2018-07-31T06:53:22.789Z,31.03
2018-07-31T06:54:03.366Z,31.07
2018-07-31T06:54:43.950Z,31.06
2018-07-31T06:55:24.519Z,31.12
2018-07-31T06:56:05.088Z,31.09
2018-07-31T06:56:45.680Z,31.05
2018-07-31T06:58:33.168Z,31.18
2018-07-31T06:59:13.735Z,31.18
2018-07-31T06:59:54.346Z,31.18
2018-07-31T07:00:34.910Z,31.2
2018-07-31T07:01:15.483Z,31.34
2018-07-31T07:01:56.095Z,31.37
2018-07-31T07:02:36.651Z,31.39
2018-07-31T07:03:17.214Z,31.54
2018-07-31T07:03:57.783Z,31.55
2018-07-31T07:04:38.349Z,31.7
2018-07-31T07:05:18.943Z,31.65
2018-07-31T07:05:59.526Z,31.73
2018-07-31T07:06:40.131Z,31.73
2018-07-31T07:07:20.686Z,31.8
2018-07-31T07:08:01.254Z,31.76
2018-07-31T07:08:41.826Z,31.69
2018-07-31T07:09:22.445Z,31.7
2018-07-31T07:10:02.999Z,31.74
2018-07-31T07:10:43.597Z,31.69
2018-07-31T07:11:24.166Z,31.69
2018-07-31T07:12:04.747Z,31.7
2018-07-31T07:12:45.336Z,31.66
2018-07-31T07:13:25.906Z,31.7
2018-07-31T07:14:06.486Z,31.8
2018-07-31T07:14:47.065Z,31.73
2018-07-31T07:15:27.694Z,31.89
2018-07-31T07:16:08.221Z,31.74
2018-07-31T07:16:48.821Z,31.8
2018-07-31T07:17:29.383Z,31.85
2018-07-31T07:18:09.982Z,31.87
2018-07-31T07:18:50.556Z,31.94
2018-07-31T07:19:31.122Z,32.01
2018-07-31T07:20:11.707Z,32.11
2018-07-31T07:20:52.297Z,32.11
2018-07-31T07:21:32.875Z,32.08
2018-07-31T07:22:13.483Z,32.09
2018-07-31T07:22:54.066Z,32.12
2018-07-31T07:23:34.650Z,32.08
2018-07-31T07:24:15.227Z,32.11
2018-07-31T07:24:55.810Z,32.04
2018-07-31T07:25:36.379Z,32.09
2018-07-31T07:26:16.962Z,32.07
2018-07-31T07:26:57.543Z,32.07
2018-07-31T07:27:38.136Z,32.01
2018-07-31T07:28:18.726Z,32.09
2018-07-31T07:28:59.306Z,32.04
2018-07-31T07:29:39.870Z,32.11
2018-07-31T07:30:20.513Z,32.08
2018-07-31T07:31:01.191Z,32.16
2018-07-31T07:31:41.772Z,32.19
2018-07-31T07:32:22.350Z,32.14
2018-07-31T07:33:02.921Z,32.29
2018-07-31T07:33:43.553Z,32.18
2018-07-31T07:34:24.061Z,32.26
2018-07-31T07:35:04.644Z,32.23
2018-07-31T07:35:45.236Z,32.29
2018-07-31T07:36:25.827Z,32.31
2018-07-31T07:37:06.401Z,32.4
2018-07-31T07:37:46.978Z,32.43
2018-07-31T07:38:27.570Z,32.4
2018-07-31T07:39:08.139Z,32.41
2018-07-31T07:39:48.798Z,32.55
2018-07-31T07:40:29.525Z,32.37
2018-07-31T07:41:10.097Z,32.52
2018-07-31T07:41:50.667Z,32.59
2018-07-31T07:42:31.300Z,32.58
2018-07-31T07:43:11.852Z,32.65
2018-07-31T07:43:52.442Z,32.71
2018-07-31T07:44:33.013Z,32.64
2018-07-31T07:45:13.621Z,32.7
2018-07-31T07:45:54.215Z,32.78
2018-07-31T07:46:34.793Z,32.86
2018-07-31T07:47:15.379Z,32.82
2018-07-31T07:47:55.951Z,32.83
2018-07-31T07:48:36.584Z,32.86
2018-07-31T07:49:17.178Z,33.02
2018-07-31T07:49:57.803Z,33.04
2018-07-31T07:50:38.356Z,33.09
2018-07-31T07:51:18.977Z,33.22
2018-07-31T07:51:59.615Z,33.15
2018-07-31T07:52:40.156Z,33.11
2018-07-31T07:53:20.722Z,33.15
2018-07-31T07:54:01.389Z,33.04
2018-07-31T07:54:41.936Z,33.12
2018-07-31T07:55:22.526Z,33.15
2018-07-31T07:56:03.125Z,33.02
2018-07-31T07:56:43.707Z,33
2018-07-31T07:57:24.280Z,33.08
2018-07-31T07:58:04.871Z,33.02
2018-07-31T07:58:45.446Z,33.02
2018-07-31T07:59:26.000Z,33
2018-07-31T08:00:06.573Z,32.96
2018-07-31T08:00:47.235Z,33.01
2018-07-31T08:01:27.778Z,32.92
2018-07-31T08:02:08.340Z,32.9
2018-07-31T08:02:48.918Z,32.89
2018-07-31T08:03:29.524Z,32.92
2018-07-31T08:04:10.163Z,32.97
2018-07-31T08:04:50.683Z,32.95
2018-07-31T08:05:31.259Z,32.97
2018-07-31T08:06:11.821Z,32.96
2018-07-31T08:06:52.440Z,33.04
2018-07-31T08:07:33.013Z,32.97
2018-07-31T08:08:13.566Z,33.01
2018-07-31T08:08:54.151Z,32.95
2018-07-31T08:09:34.732Z,32.89
2018-07-31T08:10:15.311Z,32.9
2018-07-31T08:10:55.889Z,32.83
2018-07-31T08:11:36.573Z,32.89
2018-07-31T08:12:17.142Z,32.9
2018-07-31T08:12:57.738Z,32.85
2018-07-31T08:13:38.304Z,32.87
2018-07-31T08:14:18.895Z,32.85
2018-07-31T08:14:59.483Z,32.9
2018-07-31T08:15:40.193Z,32.92
2018-07-31T08:16:20.775Z,32.97
2018-07-31T08:17:01.372Z,32.96
2018-07-31T08:17:41.940Z,32.87
2018-07-31T08:18:22.514Z,32.85
2018-07-31T08:19:03.106Z,32.89
2018-07-31T08:19:43.660Z,32.92
2018-07-31T08:20:24.283Z,32.8
2018-07-31T08:21:04.865Z,32.86
2018-07-31T08:21:45.449Z,32.9
2018-07-31T08:22:26.068Z,32.87
2018-07-31T08:23:06.667Z,32.86
2018-07-31T08:23:47.247Z,32.78
2018-07-31T08:24:27.827Z,32.8
2018-07-31T08:25:08.386Z,32.86
2018-07-31T08:25:48.965Z,32.74
2018-07-31T08:26:29.544Z,32.85
2018-07-31T08:27:10.136Z,32.85
2018-07-31T08:27:50.784Z,32.83
2018-07-31T08:28:31.271Z,32.83
2018-07-31T08:29:11.868Z,32.86
2018-07-31T08:29:52.427Z,32.82
2018-07-31T08:30:33.010Z,32.78
2018-07-31T08:31:13.597Z,32.8
2018-07-31T08:31:54.180Z,32.82
2018-07-31T08:32:34.758Z,32.82
2018-07-31T08:33:15.333Z,32.82
2018-07-31T08:33:55.920Z,32.83
2018-07-31T08:34:36.517Z,32.86
2018-07-31T08:35:17.089Z,32.92
2018-07-31T08:35:57.669Z,32.95
2018-07-31T08:36:38.251Z,32.9
2018-07-31T08:37:18.818Z,32.95
2018-07-31T08:37:59.408Z,32.83
2018-07-31T08:38:39.978Z,32.89
2018-07-31T08:39:20.550Z,32.8
2018-07-31T08:40:01.129Z,32.86
2018-07-31T08:40:41.701Z,32.89
2018-07-31T08:41:22.371Z,32.9
2018-07-31T08:42:02.845Z,32.92
2018-07-31T08:42:43.421Z,32.87
2018-07-31T08:43:23.994Z,32.9
2018-07-31T08:44:04.668Z,32.83
2018-07-31T08:44:45.186Z,32.86
2018-07-31T08:45:25.777Z,32.87
2018-07-31T08:46:06.388Z,32.86